sensor_id;sensor_type;location;lat;lon;timestamp;P1;durP1;ratioP1;P2;durP2;ratioP2
16029;SDS011;34770;49.272;11.070;2023-06-22T00:01:04;9.70;;;8.30;;
16029;SDS011;34770;49.272;11.070;2023-06-22T00:03:30;11.30;;;7.95;;
16029;SDS011;34770;49.272;11.070;2023-06-22T00:05:55;9.57;;;8.43;;
16029;SDS011;34770;49.272;11.070;2023-06-22T00:08:21;13.10;;;8.05;;
16029;SDS011;34770;49.272;11.070;2023-06-22T00:10:47;11.45;;;8.25;;
16029;SDS011;34770;49.272;11.070;2023-06-22T00:13:12;8.52;;;7.40;;
16029;SDS011;34770;49.272;11.070;2023-06-22T00:15:39;10.90;;;8.30;;
16029;SDS011;34770;49.272;11.070;2023-06-22T00:18:06;13.55;;;8.13;;
16029;SDS011;34770;49.272;11.070;2023-06-22T00:20:33;9.13;;;8.10;;
16029;SDS011;34770;49.272;11.070;2023-06-22T00:23:01;13.32;;;9.27;;
16029;SDS011;34770;49.272;11.070;2023-06-22T00:25:31;11.13;;;9.15;;
16029;SDS011;34770;49.272;11.070;2023-06-22T00:27:56;11.35;;;7.75;;
16029;SDS011;34770;49.272;11.070;2023-06-22T00:30:22;9.45;;;8.10;;
16029;SDS011;34770;49.272;11.070;2023-06-22T00:32:47;10.10;;;8.55;;
16029;SDS011;34770;49.272;11.070;2023-06-22T00:35:13;10.43;;;7.18;;
16029;SDS011;34770;49.272;11.070;2023-06-22T00:37:38;10.13;;;7.18;;
16029;SDS011;34770;49.272;11.070;2023-06-22T00:40:07;10.80;;;8.13;;
16029;SDS011;34770;49.272;11.070;2023-06-22T00:42:37;7.95;;;7.15;;
16029;SDS011;34770;49.272;11.070;2023-06-22T00:45:04;9.20;;;7.40;;
16029;SDS011;34770;49.272;11.070;2023-06-22T00:47:30;8.85;;;7.65;;
16029;SDS011;34770;49.272;11.070;2023-06-22T00:49:56;11.18;;;7.00;;
16029;SDS011;34770;49.272;11.070;2023-06-22T00:52:22;8.20;;;6.68;;
16029;SDS011;34770;49.272;11.070;2023-06-22T00:54:52;9.00;;;7.70;;
16029;SDS011;34770;49.272;11.070;2023-06-22T00:57:17;11.52;;;8.00;;
16029;SDS011;34770;49.272;11.070;2023-06-22T00:59:47;8.85;;;7.65;;
16029;SDS011;34770;49.272;11.070;2023-06-22T01:02:13;9.07;;;8.15;;
16029;SDS011;34770;49.272;11.070;2023-06-22T01:04:39;8.40;;;7.50;;
16029;SDS011;34770;49.272;11.070;2023-06-22T01:07:13;10.73;;;7.47;;
16029;SDS011;34770;49.272;11.070;2023-06-22T01:09:44;8.20;;;7.30;;
16029;SDS011;34770;49.272;11.070;2023-06-22T01:12:18;9.60;;;6.82;;
16029;SDS011;34770;49.272;11.070;2023-06-22T01:14:47;7.68;;;6.70;;
16029;SDS011;34770;49.272;11.070;2023-06-22T01:17:19;7.53;;;6.82;;
16029;SDS011;34770;49.272;11.070;2023-06-22T01:19:46;9.63;;;7.13;;
16029;SDS011;34770;49.272;11.070;2023-06-22T01:22:20;10.98;;;6.68;;
16029;SDS011;34770;49.272;11.070;2023-06-22T01:30:42;7.43;;;6.68;;
16029;SDS011;34770;49.272;11.070;2023-06-22T01:33:10;10.60;;;7.00;;
16029;SDS011;34770;49.272;11.070;2023-06-22T01:35:38;9.90;;;7.13;;
16029;SDS011;34770;49.272;11.070;2023-06-22T01:38:04;11.52;;;7.95;;
16029;SDS011;34770;49.272;11.070;2023-06-22T01:40:30;7.95;;;6.93;;
16029;SDS011;34770;49.272;11.070;2023-06-22T01:43:00;9.60;;;6.97;;
16029;SDS011;34770;49.272;11.070;2023-06-22T01:45:26;12.07;;;6.70;;
16029;SDS011;34770;49.272;11.070;2023-06-22T01:47:52;10.18;;;7.22;;
16029;SDS011;34770;49.272;11.070;2023-06-22T01:50:19;7.95;;;6.20;;
16029;SDS011;34770;49.272;11.070;2023-06-22T01:52:45;9.10;;;7.22;;
16029;SDS011;34770;49.272;11.070;2023-06-22T01:55:10;9.68;;;7.53;;
16029;SDS011;34770;49.272;11.070;2023-06-22T01:57:36;10.90;;;7.85;;
16029;SDS011;34770;49.272;11.070;2023-06-22T02:00:04;8.50;;;7.13;;
16029;SDS011;34770;49.272;11.070;2023-06-22T02:05:17;7.95;;;7.15;;
16029;SDS011;34770;49.272;11.070;2023-06-22T02:07:46;11.10;;;7.72;;
16029;SDS011;34770;49.272;11.070;2023-06-22T02:10:16;9.32;;;7.88;;
16029;SDS011;34770;49.272;11.070;2023-06-22T02:12:44;10.70;;;7.55;;
16029;SDS011;34770;49.272;11.070;2023-06-22T02:15:11;13.95;;;8.98;;
16029;SDS011;34770;49.272;11.070;2023-06-22T02:17:37;10.50;;;8.68;;
16029;SDS011;34770;49.272;11.070;2023-06-22T02:20:03;10.20;;;8.52;;
16029;SDS011;34770;49.272;11.070;2023-06-22T02:22:33;12.80;;;8.63;;
16029;SDS011;34770;49.272;11.070;2023-06-22T02:24:59;10.55;;;8.60;;
16029;SDS011;34770;49.272;11.070;2023-06-22T02:27:24;14.43;;;7.88;;
16029;SDS011;34770;49.272;11.070;2023-06-22T02:29:50;10.73;;;8.13;;
16029;SDS011;34770;49.272;11.070;2023-06-22T02:32:15;12.02;;;8.07;;
16029;SDS011;34770;49.272;11.070;2023-06-22T02:34:42;9.05;;;7.70;;
16029;SDS011;34770;49.272;11.070;2023-06-22T02:37:12;12.63;;;8.25;;
16029;SDS011;34770;49.272;11.070;2023-06-22T02:39:39;10.95;;;8.18;;
16029;SDS011;34770;49.272;11.070;2023-06-22T02:42:05;9.35;;;8.23;;
16029;SDS011;34770;49.272;11.070;2023-06-22T02:44:30;9.52;;;8.05;;
16029;SDS011;34770;49.272;11.070;2023-06-22T02:46:56;13.05;;;8.85;;
16029;SDS011;34770;49.272;11.070;2023-06-22T02:49:21;12.32;;;8.93;;
16029;SDS011;34770;49.272;11.070;2023-06-22T02:51:47;15.88;;;8.50;;
16029;SDS011;34770;49.272;11.070;2023-06-22T02:54:13;11.57;;;9.23;;
16029;SDS011;34770;49.272;11.070;2023-06-22T02:56:39;10.50;;;8.52;;
16029;SDS011;34770;49.272;11.070;2023-06-22T02:59:06;15.23;;;9.00;;
16029;SDS011;34770;49.272;11.070;2023-06-22T03:01:31;10.32;;;8.30;;
16029;SDS011;34770;49.272;11.070;2023-06-22T03:04:05;11.35;;;8.38;;
16029;SDS011;34770;49.272;11.070;2023-06-22T03:06:34;10.30;;;7.80;;
16029;SDS011;34770;49.272;11.070;2023-06-22T03:09:00;9.40;;;8.50;;
16029;SDS011;34770;49.272;11.070;2023-06-22T03:11:28;9.00;;;8.10;;
16029;SDS011;34770;49.272;11.070;2023-06-22T03:13:54;9.63;;;8.65;;
16029;SDS011;34770;49.272;11.070;2023-06-22T03:16:20;9.95;;;8.23;;
16029;SDS011;34770;49.272;11.070;2023-06-22T03:18:45;8.43;;;7.63;;
16029;SDS011;34770;49.272;11.070;2023-06-22T03:21:11;10.73;;;7.90;;
16029;SDS011;34770;49.272;11.070;2023-06-22T03:23:36;13.43;;;7.38;;
16029;SDS011;34770;49.272;11.070;2023-06-22T03:26:02;9.50;;;7.75;;
16029;SDS011;34770;49.272;11.070;2023-06-22T03:28:27;10.73;;;8.55;;
16029;SDS011;34770;49.272;11.070;2023-06-22T03:30:53;9.10;;;7.00;;
16029;SDS011;34770;49.272;11.070;2023-06-22T03:33:18;10.48;;;7.85;;
16029;SDS011;34770;49.272;11.070;2023-06-22T03:35:44;7.75;;;6.72;;
16029;SDS011;34770;49.272;11.070;2023-06-22T03:38:09;8.68;;;7.10;;
16029;SDS011;34770;49.272;11.070;2023-06-22T03:40:34;11.30;;;6.88;;
16029;SDS011;34770;49.272;11.070;2023-06-22T03:43:00;7.63;;;6.93;;
16029;SDS011;34770;49.272;11.070;2023-06-22T03:45:25;7.95;;;7.20;;
16029;SDS011;34770;49.272;11.070;2023-06-22T03:47:50;9.52;;;7.80;;
16029;SDS011;34770;49.272;11.070;2023-06-22T03:50:16;9.32;;;7.15;;
16029;SDS011;34770;49.272;11.070;2023-06-22T03:52:41;7.82;;;7.03;;
16029;SDS011;34770;49.272;11.070;2023-06-22T03:55:07;12.55;;;8.35;;
16029;SDS011;34770;49.272;11.070;2023-06-22T03:57:33;8.95;;;6.47;;
16029;SDS011;34770;49.272;11.070;2023-06-22T03:59:58;10.15;;;7.82;;
16029;SDS011;34770;49.272;11.070;2023-06-22T04:02:24;11.82;;;7.40;;
16029;SDS011;34770;49.272;11.070;2023-06-22T04:04:50;9.20;;;7.43;;
16029;SDS011;34770;49.272;11.070;2023-06-22T04:07:15;9.02;;;6.25;;
16029;SDS011;34770;49.272;11.070;2023-06-22T04:09:41;10.27;;;8.10;;
16029;SDS011;34770;49.272;11.070;2023-06-22T04:12:06;12.68;;;8.02;;
16029;SDS011;34770;49.272;11.070;2023-06-22T04:14:32;9.65;;;7.25;;
16029;SDS011;34770;49.272;11.070;2023-06-22T04:16:58;10.73;;;8.23;;
16029;SDS011;34770;49.272;11.070;2023-06-22T04:19:24;8.52;;;7.72;;
16029;SDS011;34770;49.272;11.070;2023-06-22T04:21:49;9.32;;;8.32;;
16029;SDS011;34770;49.272;11.070;2023-06-22T04:24:14;9.95;;;8.30;;
16029;SDS011;34770;49.272;11.070;2023-06-22T04:26:40;12.48;;;7.85;;
16029;SDS011;34770;49.272;11.070;2023-06-22T04:29:07;9.15;;;7.78;;
16029;SDS011;34770;49.272;11.070;2023-06-22T04:31:36;9.80;;;8.80;;
16029;SDS011;34770;49.272;11.070;2023-06-22T04:34:02;9.02;;;8.13;;
16029;SDS011;34770;49.272;11.070;2023-06-22T04:36:38;9.57;;;7.65;;
16029;SDS011;34770;49.272;11.070;2023-06-22T04:39:09;13.20;;;8.35;;
16029;SDS011;34770;49.272;11.070;2023-06-22T04:41:36;14.73;;;9.35;;
16029;SDS011;34770;49.272;11.070;2023-06-22T04:44:08;10.43;;;9.32;;
16029;SDS011;34770;49.272;11.070;2023-06-22T04:46:35;12.65;;;10.20;;
16029;SDS011;34770;49.272;11.070;2023-06-22T04:49:03;11.05;;;8.50;;
16029;SDS011;34770;49.272;11.070;2023-06-22T04:51:35;14.13;;;10.40;;
16029;SDS011;34770;49.272;11.070;2023-06-22T04:54:07;10.10;;;8.93;;
16029;SDS011;34770;49.272;11.070;2023-06-22T04:56:34;11.15;;;8.90;;
16029;SDS011;34770;49.272;11.070;2023-06-22T04:59:00;11.27;;;9.00;;
16029;SDS011;34770;49.272;11.070;2023-06-22T05:01:25;9.98;;;8.93;;
16029;SDS011;34770;49.272;11.070;2023-06-22T05:03:51;15.25;;;10.82;;
16029;SDS011;34770;49.272;11.070;2023-06-22T05:06:25;11.30;;;9.80;;
16029;SDS011;34770;49.272;11.070;2023-06-22T05:08:54;9.88;;;8.85;;
16029;SDS011;34770;49.272;11.070;2023-06-22T05:11:29;10.88;;;8.70;;
16029;SDS011;34770;49.272;11.070;2023-06-22T05:13:54;10.32;;;9.27;;
16029;SDS011;34770;49.272;11.070;2023-06-22T05:16:20;14.60;;;10.40;;
16029;SDS011;34770;49.272;11.070;2023-06-22T05:18:52;14.10;;;8.63;;
16029;SDS011;34770;49.272;11.070;2023-06-22T05:21:22;8.90;;;7.97;;
16029;SDS011;34770;49.272;11.070;2023-06-22T05:23:49;8.85;;;7.95;;
16029;SDS011;34770;49.272;11.070;2023-06-22T05:26:15;10.93;;;9.35;;
16029;SDS011;34770;49.272;11.070;2023-06-22T05:28:41;9.75;;;8.48;;
16029;SDS011;34770;49.272;11.070;2023-06-22T05:31:06;11.43;;;9.25;;
16029;SDS011;34770;49.272;11.070;2023-06-22T05:33:31;10.93;;;9.10;;
16029;SDS011;34770;49.272;11.070;2023-06-22T05:35:57;10.02;;;8.70;;
16029;SDS011;34770;49.272;11.070;2023-06-22T05:38:22;14.45;;;9.20;;
16029;SDS011;34770;49.272;11.070;2023-06-22T05:40:47;11.13;;;9.48;;
16029;SDS011;34770;49.272;11.070;2023-06-22T05:43:13;11.90;;;8.60;;
16029;SDS011;34770;49.272;11.070;2023-06-22T05:45:38;11.88;;;8.55;;
16029;SDS011;34770;49.272;11.070;2023-06-22T05:48:04;9.82;;;8.82;;
16029;SDS011;34770;49.272;11.070;2023-06-22T05:50:29;8.82;;;7.93;;
16029;SDS011;34770;49.272;11.070;2023-06-22T05:52:58;12.77;;;9.10;;
16029;SDS011;34770;49.272;11.070;2023-06-22T05:55:23;9.40;;;7.93;;
16029;SDS011;34770;49.272;11.070;2023-06-22T05:57:48;11.40;;;8.63;;
16029;SDS011;34770;49.272;11.070;2023-06-22T06:00:14;10.63;;;8.68;;
16029;SDS011;34770;49.272;11.070;2023-06-22T06:02:39;11.77;;;9.55;;
16029;SDS011;34770;49.272;11.070;2023-06-22T06:05:09;13.70;;;8.13;;
16029;SDS011;34770;49.272;11.070;2023-06-22T06:07:35;8.75;;;7.57;;
16029;SDS011;34770;49.272;11.070;2023-06-22T06:10:02;18.60;;;8.98;;
16029;SDS011;34770;49.272;11.070;2023-06-22T06:12:29;9.15;;;7.60;;
16029;SDS011;34770;49.272;11.070;2023-06-22T06:14:55;9.52;;;8.38;;
16029;SDS011;34770;49.272;11.070;2023-06-22T06:17:21;10.85;;;9.77;;
16029;SDS011;34770;49.272;11.070;2023-06-22T06:19:47;9.90;;;8.90;;
16029;SDS011;34770;49.272;11.070;2023-06-22T06:22:12;9.13;;;8.10;;
16029;SDS011;34770;49.272;11.070;2023-06-22T06:24:37;12.85;;;9.45;;
16029;SDS011;34770;49.272;11.070;2023-06-22T06:27:03;11.70;;;8.55;;
16029;SDS011;34770;49.272;11.070;2023-06-22T06:29:31;9.85;;;8.85;;
16029;SDS011;34770;49.272;11.070;2023-06-22T06:31:57;12.18;;;8.77;;
16029;SDS011;34770;49.272;11.070;2023-06-22T06:34:22;12.52;;;8.93;;
16029;SDS011;34770;49.272;11.070;2023-06-22T06:36:48;9.50;;;8.27;;
16029;SDS011;34770;49.272;11.070;2023-06-22T06:39:13;10.20;;;7.15;;
16029;SDS011;34770;49.272;11.070;2023-06-22T06:41:38;8.63;;;7.72;;
16029;SDS011;34770;49.272;11.070;2023-06-22T06:44:04;9.95;;;7.93;;
16029;SDS011;34770;49.272;11.070;2023-06-22T06:46:29;9.15;;;7.68;;
16029;SDS011;34770;49.272;11.070;2023-06-22T06:48:55;9.63;;;7.97;;
16029;SDS011;34770;49.272;11.070;2023-06-22T06:51:20;9.43;;;7.80;;
16029;SDS011;34770;49.272;11.070;2023-06-22T06:53:45;9.55;;;7.15;;
16029;SDS011;34770;49.272;11.070;2023-06-22T06:56:11;9.13;;;6.68;;
16029;SDS011;34770;49.272;11.070;2023-06-22T06:58:37;9.45;;;7.72;;
16029;SDS011;34770;49.272;11.070;2023-06-22T07:01:02;11.40;;;8.07;;
16029;SDS011;34770;49.272;11.070;2023-06-22T07:03:28;8.15;;;7.20;;
16029;SDS011;34770;49.272;11.070;2023-06-22T07:05:53;11.18;;;8.02;;
16029;SDS011;34770;49.272;11.070;2023-06-22T07:08:19;10.88;;;7.70;;
16029;SDS011;34770;49.272;11.070;2023-06-22T07:10:44;8.13;;;7.25;;
16029;SDS011;34770;49.272;11.070;2023-06-22T07:13:09;10.75;;;6.85;;
16029;SDS011;34770;49.272;11.070;2023-06-22T07:15:35;7.07;;;6.07;;
16029;SDS011;34770;49.272;11.070;2023-06-22T07:18:00;7.22;;;6.32;;
16029;SDS011;34770;49.272;11.070;2023-06-22T07:20:25;10.85;;;6.60;;
16029;SDS011;34770;49.272;11.070;2023-06-22T07:22:51;8.35;;;6.35;;
16029;SDS011;34770;49.272;11.070;2023-06-22T07:25:17;8.25;;;6.18;;
16029;SDS011;34770;49.272;11.070;2023-06-22T07:27:46;7.32;;;6.22;;
16029;SDS011;34770;49.272;11.070;2023-06-22T07:30:22;7.32;;;5.65;;
16029;SDS011;34770;49.272;11.070;2023-06-22T07:32:48;8.68;;;4.97;;
16029;SDS011;34770;49.272;11.070;2023-06-22T07:35:13;9.00;;;4.72;;
16029;SDS011;34770;49.272;11.070;2023-06-22T07:37:41;9.13;;;4.35;;
16029;SDS011;34770;49.272;11.070;2023-06-22T07:40:06;4.88;;;4.38;;
16029;SDS011;34770;49.272;11.070;2023-06-22T07:42:33;5.22;;;4.18;;
16029;SDS011;34770;49.272;11.070;2023-06-22T07:44:58;5.88;;;4.30;;
16029;SDS011;34770;49.272;11.070;2023-06-22T07:47:23;7.75;;;4.47;;
16029;SDS011;34770;49.272;11.070;2023-06-22T07:49:51;5.88;;;4.20;;
16029;SDS011;34770;49.272;11.070;2023-06-22T07:52:19;5.10;;;4.57;;
16029;SDS011;34770;49.272;11.070;2023-06-22T07:54:44;6.78;;;4.68;;
16029;SDS011;34770;49.272;11.070;2023-06-22T07:57:10;8.63;;;5.13;;
16029;SDS011;34770;49.272;11.070;2023-06-22T07:59:36;8.32;;;4.28;;
16029;SDS011;34770;49.272;11.070;2023-06-22T08:02:01;6.18;;;4.18;;
16029;SDS011;34770;49.272;11.070;2023-06-22T08:04:28;6.85;;;4.10;;
16029;SDS011;34770;49.272;11.070;2023-06-22T08:06:53;5.75;;;4.30;;
16029;SDS011;34770;49.272;11.070;2023-06-22T08:09:19;7.55;;;4.28;;
16029;SDS011;34770;49.272;11.070;2023-06-22T08:11:44;9.30;;;4.32;;
16029;SDS011;34770;49.272;11.070;2023-06-22T08:14:10;4.75;;;4.13;;
16029;SDS011;34770;49.272;11.070;2023-06-22T08:16:35;4.93;;;4.25;;
16029;SDS011;34770;49.272;11.070;2023-06-22T08:19:00;6.30;;;4.13;;
16029;SDS011;34770;49.272;11.070;2023-06-22T08:21:26;6.00;;;4.22;;
16029;SDS011;34770;49.272;11.070;2023-06-22T08:23:51;11.65;;;4.40;;
16029;SDS011;34770;49.272;11.070;2023-06-22T08:26:16;8.25;;;4.18;;
16029;SDS011;34770;49.272;11.070;2023-06-22T08:28:42;7.03;;;4.88;;
16029;SDS011;34770;49.272;11.070;2023-06-22T08:31:07;5.55;;;4.22;;
16029;SDS011;34770;49.272;11.070;2023-06-22T08:33:33;4.28;;;3.80;;
16029;SDS011;34770;49.272;11.070;2023-06-22T08:35:59;9.50;;;3.97;;
16029;SDS011;34770;49.272;11.070;2023-06-22T08:38:25;6.28;;;3.88;;
16029;SDS011;34770;49.272;11.070;2023-06-22T08:40:51;7.25;;;4.28;;
16029;SDS011;34770;49.272;11.070;2023-06-22T08:43:16;7.15;;;4.10;;
16029;SDS011;34770;49.272;11.070;2023-06-22T08:45:41;4.88;;;3.88;;
16029;SDS011;34770;49.272;11.070;2023-06-22T08:48:07;12.52;;;4.82;;
16029;SDS011;34770;49.272;11.070;2023-06-22T08:50:32;8.75;;;4.47;;
16029;SDS011;34770;49.272;11.070;2023-06-22T08:52:57;6.10;;;3.85;;
16029;SDS011;34770;49.272;11.070;2023-06-22T08:55:23;6.55;;;4.13;;
16029;SDS011;34770;49.272;11.070;2023-06-22T08:57:48;6.07;;;3.58;;
16029;SDS011;34770;49.272;11.070;2023-06-22T09:00:13;8.57;;;3.78;;
16029;SDS011;34770;49.272;11.070;2023-06-22T09:02:44;5.90;;;3.55;;
16029;SDS011;34770;49.272;11.070;2023-06-22T09:05:10;8.13;;;4.30;;
16029;SDS011;34770;49.272;11.070;2023-06-22T09:07:35;6.53;;;3.60;;
16029;SDS011;34770;49.272;11.070;2023-06-22T09:10:01;6.53;;;3.97;;
16029;SDS011;34770;49.272;11.070;2023-06-22T09:12:26;8.10;;;4.05;;
16029;SDS011;34770;49.272;11.070;2023-06-22T09:14:52;8.48;;;3.70;;
16029;SDS011;34770;49.272;11.070;2023-06-22T09:17:18;8.85;;;3.72;;
16029;SDS011;34770;49.272;11.070;2023-06-22T09:19:44;9.63;;;4.13;;
16029;SDS011;34770;49.272;11.070;2023-06-22T09:22:09;6.63;;;4.20;;
16029;SDS011;34770;49.272;11.070;2023-06-22T09:24:35;7.85;;;4.32;;
16029;SDS011;34770;49.272;11.070;2023-06-22T09:27:00;6.70;;;4.55;;
16029;SDS011;34770;49.272;11.070;2023-06-22T09:29:26;8.10;;;3.78;;
16029;SDS011;34770;49.272;11.070;2023-06-22T09:31:51;6.30;;;4.13;;
16029;SDS011;34770;49.272;11.070;2023-06-22T09:34:18;7.45;;;4.45;;
16029;SDS011;34770;49.272;11.070;2023-06-22T09:36:45;5.47;;;3.83;;
16029;SDS011;34770;49.272;11.070;2023-06-22T09:39:11;5.90;;;3.58;;
16029;SDS011;34770;49.272;11.070;2023-06-22T09:41:36;7.15;;;4.10;;
16029;SDS011;34770;49.272;11.070;2023-06-22T09:44:02;7.15;;;3.75;;
16029;SDS011;34770;49.272;11.070;2023-06-22T09:46:27;5.90;;;3.90;;
16029;SDS011;34770;49.272;11.070;2023-06-22T09:48:53;6.50;;;3.67;;
16029;SDS011;34770;49.272;11.070;2023-06-22T09:51:19;7.18;;;3.85;;
16029;SDS011;34770;49.272;11.070;2023-06-22T09:53:46;5.45;;;3.80;;
16029;SDS011;34770;49.272;11.070;2023-06-22T09:56:12;7.68;;;3.90;;
16029;SDS011;34770;49.272;11.070;2023-06-22T09:58:40;9.48;;;4.38;;
16029;SDS011;34770;49.272;11.070;2023-06-22T10:01:07;6.68;;;3.55;;
16029;SDS011;34770;49.272;11.070;2023-06-22T10:03:32;8.98;;;4.40;;
16029;SDS011;34770;49.272;11.070;2023-06-22T10:05:57;12.18;;;4.38;;
16029;SDS011;34770;49.272;11.070;2023-06-22T10:08:23;10.00;;;4.70;;
16029;SDS011;34770;49.272;11.070;2023-06-22T10:10:48;10.27;;;3.80;;
16029;SDS011;34770;49.272;11.070;2023-06-22T10:13:14;9.05;;;4.15;;
16029;SDS011;34770;49.272;11.070;2023-06-22T10:15:39;7.18;;;3.63;;
16029;SDS011;34770;49.272;11.070;2023-06-22T10:18:05;7.95;;;3.97;;
16029;SDS011;34770;49.272;11.070;2023-06-22T10:20:31;9.77;;;4.45;;
16029;SDS011;34770;49.272;11.070;2023-06-22T10:22:56;8.52;;;4.30;;
16029;SDS011;34770;49.272;11.070;2023-06-22T10:25:22;9.93;;;4.30;;
16029;SDS011;34770;49.272;11.070;2023-06-22T10:27:47;9.90;;;4.40;;
16029;SDS011;34770;49.272;11.070;2023-06-22T10:30:13;9.07;;;4.67;;
16029;SDS011;34770;49.272;11.070;2023-06-22T10:32:39;7.90;;;4.45;;
16029;SDS011;34770;49.272;11.070;2023-06-22T10:35:06;9.55;;;4.60;;
16029;SDS011;34770;49.272;11.070;2023-06-22T10:37:31;10.80;;;4.28;;
16029;SDS011;34770;49.272;11.070;2023-06-22T10:39:57;6.57;;;4.10;;
16029;SDS011;34770;49.272;11.070;2023-06-22T10:42:22;8.48;;;4.93;;
16029;SDS011;34770;49.272;11.070;2023-06-22T10:44:48;6.18;;;4.28;;
16029;SDS011;34770;49.272;11.070;2023-06-22T10:47:14;4.22;;;3.38;;
16029;SDS011;34770;49.272;11.070;2023-06-22T10:49:39;12.93;;;4.80;;
16029;SDS011;34770;49.272;11.070;2023-06-22T10:52:06;7.40;;;4.65;;
16029;SDS011;34770;49.272;11.070;2023-06-22T10:54:33;5.15;;;4.00;;
16029;SDS011;34770;49.272;11.070;2023-06-22T10:56:59;9.35;;;4.30;;
16029;SDS011;34770;49.272;11.070;2023-06-22T10:59:25;13.57;;;4.25;;
16029;SDS011;34770;49.272;11.070;2023-06-22T11:01:51;7.85;;;4.22;;
16029;SDS011;34770;49.272;11.070;2023-06-22T11:04:16;6.97;;;4.30;;
16029;SDS011;34770;49.272;11.070;2023-06-22T11:06:42;7.18;;;4.35;;
16029;SDS011;34770;49.272;11.070;2023-06-22T11:09:08;10.02;;;4.43;;
16029;SDS011;34770;49.272;11.070;2023-06-22T11:11:34;7.63;;;4.20;;
16029;SDS011;34770;49.272;11.070;2023-06-22T11:13:59;11.07;;;4.55;;
16029;SDS011;34770;49.272;11.070;2023-06-22T11:16:25;6.70;;;4.20;;
16029;SDS011;34770;49.272;11.070;2023-06-22T11:18:50;8.88;;;4.05;;
16029;SDS011;34770;49.272;11.070;2023-06-22T11:21:15;9.68;;;4.60;;
16029;SDS011;34770;49.272;11.070;2023-06-22T11:23:41;8.75;;;4.25;;
16029;SDS011;34770;49.272;11.070;2023-06-22T11:26:07;7.70;;;3.95;;
16029;SDS011;34770;49.272;11.070;2023-06-22T11:28:33;9.20;;;4.05;;
16029;SDS011;34770;49.272;11.070;2023-06-22T11:30:58;7.28;;;4.47;;
16029;SDS011;34770;49.272;11.070;2023-06-22T11:33:24;8.85;;;3.97;;
16029;SDS011;34770;49.272;11.070;2023-06-22T11:35:49;11.82;;;4.75;;
16029;SDS011;34770;49.272;11.070;2023-06-22T11:38:15;8.70;;;4.32;;
16029;SDS011;34770;49.272;11.070;2023-06-22T11:40:40;8.10;;;4.28;;
16029;SDS011;34770;49.272;11.070;2023-06-22T11:43:05;9.05;;;3.95;;
16029;SDS011;34770;49.272;11.070;2023-06-22T11:45:31;9.68;;;4.03;;
16029;SDS011;34770;49.272;11.070;2023-06-22T11:47:56;10.43;;;4.22;;
16029;SDS011;34770;49.272;11.070;2023-06-22T11:50:21;8.32;;;3.75;;
16029;SDS011;34770;49.272;11.070;2023-06-22T11:52:47;6.15;;;3.97;;
16029;SDS011;34770;49.272;11.070;2023-06-22T11:55:12;7.95;;;3.38;;
16029;SDS011;34770;49.272;11.070;2023-06-22T11:57:38;8.27;;;3.83;;
16029;SDS011;34770;49.272;11.070;2023-06-22T12:00:16;8.07;;;4.43;;
16029;SDS011;34770;49.272;11.070;2023-06-22T12:02:46;14.48;;;4.72;;
16029;SDS011;34770;49.272;11.070;2023-06-22T12:05:14;8.88;;;4.30;;
16029;SDS011;34770;49.272;11.070;2023-06-22T12:07:39;11.52;;;4.65;;
16029;SDS011;34770;49.272;11.070;2023-06-22T12:10:05;13.75;;;4.45;;
16029;SDS011;34770;49.272;11.070;2023-06-22T12:12:30;9.18;;;4.05;;
16029;SDS011;34770;49.272;11.070;2023-06-22T12:14:56;12.30;;;4.68;;
16029;SDS011;34770;49.272;11.070;2023-06-22T12:17:21;5.72;;;3.72;;
16029;SDS011;34770;49.272;11.070;2023-06-22T12:19:46;9.93;;;5.32;;
16029;SDS011;34770;49.272;11.070;2023-06-22T12:22:12;11.30;;;4.55;;
16029;SDS011;34770;49.272;11.070;2023-06-22T12:24:37;9.80;;;4.15;;
16029;SDS011;34770;49.272;11.070;2023-06-22T12:27:03;13.05;;;4.97;;
16029;SDS011;34770;49.272;11.070;2023-06-22T12:29:28;7.75;;;4.32;;
16029;SDS011;34770;49.272;11.070;2023-06-22T12:31:54;11.38;;;3.97;;
16029;SDS011;34770;49.272;11.070;2023-06-22T12:34:19;9.48;;;4.45;;
16029;SDS011;34770;49.272;11.070;2023-06-22T12:36:45;16.45;;;4.57;;
16029;SDS011;34770;49.272;11.070;2023-06-22T12:39:13;9.68;;;4.68;;
16029;SDS011;34770;49.272;11.070;2023-06-22T12:41:38;6.15;;;4.00;;
16029;SDS011;34770;49.272;11.070;2023-06-22T12:44:03;6.97;;;4.20;;
16029;SDS011;34770;49.272;11.070;2023-06-22T12:46:29;10.60;;;4.68;;
16029;SDS011;34770;49.272;11.070;2023-06-22T12:49:00;8.90;;;4.65;;
16029;SDS011;34770;49.272;11.070;2023-06-22T12:51:26;9.50;;;4.60;;
16029;SDS011;34770;49.272;11.070;2023-06-22T12:53:51;14.23;;;4.47;;
16029;SDS011;34770;49.272;11.070;2023-06-22T12:56:16;13.73;;;4.10;;
16029;SDS011;34770;49.272;11.070;2023-06-22T12:58:42;9.07;;;4.20;;
16029;SDS011;34770;49.272;11.070;2023-06-22T13:01:07;11.50;;;4.80;;
16029;SDS011;34770;49.272;11.070;2023-06-22T13:03:33;7.72;;;4.25;;
16029;SDS011;34770;49.272;11.070;2023-06-22T13:05:58;8.38;;;4.25;;
16029;SDS011;34770;49.272;11.070;2023-06-22T13:08:23;13.05;;;4.32;;
16029;SDS011;34770;49.272;11.070;2023-06-22T13:10:49;13.52;;;4.70;;
16029;SDS011;34770;49.272;11.070;2023-06-22T13:13:14;13.27;;;4.95;;
16029;SDS011;34770;49.272;11.070;2023-06-22T13:15:39;14.80;;;4.72;;
16029;SDS011;34770;49.272;11.070;2023-06-22T13:18:05;12.57;;;4.75;;
16029;SDS011;34770;49.272;11.070;2023-06-22T13:20:30;16.90;;;4.97;;
16029;SDS011;34770;49.272;11.070;2023-06-22T13:22:56;12.10;;;4.40;;
16029;SDS011;34770;49.272;11.070;2023-06-22T13:25:22;8.43;;;4.18;;
16029;SDS011;34770;49.272;11.070;2023-06-22T13:27:51;11.43;;;4.25;;
16029;SDS011;34770;49.272;11.070;2023-06-22T13:30:17;13.43;;;4.25;;
16029;SDS011;34770;49.272;11.070;2023-06-22T13:32:42;8.57;;;4.10;;
16029;SDS011;34770;49.272;11.070;2023-06-22T13:35:08;10.35;;;4.13;;
16029;SDS011;34770;49.272;11.070;2023-06-22T13:37:35;13.25;;;5.20;;
16029;SDS011;34770;49.272;11.070;2023-06-22T13:40:00;9.70;;;4.45;;
16029;SDS011;34770;49.272;11.070;2023-06-22T13:42:28;8.35;;;4.43;;
16029;SDS011;34770;49.272;11.070;2023-06-22T13:44:53;9.95;;;4.63;;
16029;SDS011;34770;49.272;11.070;2023-06-22T13:47:19;11.95;;;3.97;;
16029;SDS011;34770;49.272;11.070;2023-06-22T13:49:44;12.43;;;4.50;;
16029;SDS011;34770;49.272;11.070;2023-06-22T13:52:09;9.05;;;4.07;;
16029;SDS011;34770;49.272;11.070;2023-06-22T13:54:37;9.20;;;4.50;;
16029;SDS011;34770;49.272;11.070;2023-06-22T13:57:03;10.25;;;4.05;;
16029;SDS011;34770;49.272;11.070;2023-06-22T13:59:29;12.60;;;4.40;;
16029;SDS011;34770;49.272;11.070;2023-06-22T14:01:54;8.95;;;4.45;;
16029;SDS011;34770;49.272;11.070;2023-06-22T14:04:21;10.75;;;4.65;;
16029;SDS011;34770;49.272;11.070;2023-06-22T14:06:48;9.13;;;4.68;;
16029;SDS011;34770;49.272;11.070;2023-06-22T14:09:13;12.10;;;4.18;;
16029;SDS011;34770;49.272;11.070;2023-06-22T14:11:39;9.07;;;4.32;;
16029;SDS011;34770;49.272;11.070;2023-06-22T14:14:04;10.93;;;4.50;;
16029;SDS011;34770;49.272;11.070;2023-06-22T14:16:29;10.00;;;4.25;;
16029;SDS011;34770;49.272;11.070;2023-06-22T14:18:55;12.90;;;4.80;;
16029;SDS011;34770;49.272;11.070;2023-06-22T14:21:20;10.83;;;4.30;;
16029;SDS011;34770;49.272;11.070;2023-06-22T14:23:46;13.80;;;5.20;;
16029;SDS011;34770;49.272;11.070;2023-06-22T14:26:14;9.43;;;3.85;;
16029;SDS011;34770;49.272;11.070;2023-06-22T14:28:43;12.02;;;4.30;;
16029;SDS011;34770;49.272;11.070;2023-06-22T14:31:12;11.95;;;3.97;;